createdAt,value
2022-10-18T00:00:51.785Z,5.85
2022-10-18T00:03:20.090Z,5.17
2022-10-18T00:05:48.868Z,5.50
2022-10-18T00:08:17.410Z,6.15
2022-10-18T00:10:45.516Z,6.12
2022-10-18T00:13:12.952Z,6.03
2022-10-18T00:15:40.455Z,5.43
2022-10-18T00:18:08.149Z,6.00
2022-10-18T00:20:35.551Z,6.20
2022-10-18T00:23:03.163Z,5.75
2022-10-18T00:25:30.841Z,6.05
2022-10-18T00:27:58.341Z,5.93
2022-10-18T00:30:25.936Z,6.68
2022-10-18T00:32:53.636Z,6.35
2022-10-18T00:35:21.040Z,5.87
2022-10-18T00:37:48.404Z,6.10
2022-10-18T00:40:16.167Z,5.90
2022-10-18T00:42:43.556Z,5.97
2022-10-18T00:45:24.371Z,6.57
2022-10-18T00:47:56.557Z,6.05
2022-10-18T00:50:26.552Z,6.68
2022-10-18T00:52:58.466Z,6.07
2022-10-18T00:55:27.646Z,6.20
2022-10-18T00:57:55.921Z,6.80
2022-10-18T01:00:24.145Z,6.47
2022-10-18T01:02:52.007Z,6.45
2022-10-18T01:05:20.172Z,6.70
2022-10-18T01:07:47.476Z,6.37
2022-10-18T01:10:49.162Z,6.40
2022-10-18T01:14:06.496Z,5.95
2022-10-18T01:17:01.160Z,6.72
2022-10-18T01:19:53.603Z,6.70
2022-10-18T01:22:26.001Z,6.30
2022-10-18T01:27:51.015Z,6.32
2022-10-18T01:30:24.580Z,7.47
2022-10-18T01:32:57.918Z,5.87
2022-10-18T01:35:32.188Z,6.10
2022-10-18T01:38:05.457Z,6.70
2022-10-18T01:40:35.344Z,6.93
2022-10-18T01:43:04.650Z,6.70
2022-10-18T01:45:33.131Z,6.60
2022-10-18T01:48:02.115Z,6.62
2022-10-18T01:50:32.184Z,6.72
2022-10-18T01:53:00.047Z,6.75
2022-10-18T01:55:41.061Z,5.93
2022-10-18T01:58:08.737Z,6.07
2022-10-18T02:00:44.240Z,6.68
2022-10-18T02:03:23.871Z,7.37
2022-10-18T02:06:21.817Z,6.53
2022-10-18T02:09:04.415Z,6.50
2022-10-18T02:11:34.746Z,6.43
2022-10-18T02:14:12.722Z,6.70
2022-10-18T02:16:54.988Z,7.28
2022-10-18T02:19:30.990Z,6.62
2022-10-18T02:21:59.593Z,6.80
2022-10-18T02:24:34.421Z,6.10
2022-10-18T02:27:02.330Z,6.40
2022-10-18T02:29:31.858Z,6.57
2022-10-18T02:32:04.470Z,6.75
2022-10-18T02:34:45.310Z,6.62
2022-10-18T02:37:15.479Z,7.00
2022-10-18T02:39:47.446Z,7.07
2022-10-18T02:42:15.396Z,7.10
2022-10-18T02:44:43.104Z,6.70
2022-10-18T02:47:11.525Z,6.60
2022-10-18T02:49:38.952Z,6.00
2022-10-18T02:52:06.716Z,6.93
2022-10-18T02:54:34.141Z,7.03
2022-10-18T02:57:01.560Z,7.75
2022-10-18T02:59:29.245Z,6.80
2022-10-18T03:01:56.677Z,7.03
2022-10-18T03:04:24.236Z,6.87
2022-10-18T03:06:51.965Z,7.18
2022-10-18T03:09:19.364Z,6.18
2022-10-18T03:11:46.754Z,6.90
2022-10-18T03:14:14.561Z,6.90
2022-10-18T03:16:41.941Z,6.53
2022-10-18T03:19:09.336Z,7.22
2022-10-18T03:21:37.024Z,7.57
2022-10-18T03:24:04.832Z,8.43
2022-10-18T03:26:32.530Z,6.87
2022-10-18T03:29:00.219Z,6.75
2022-10-18T03:31:27.778Z,7.43
2022-10-18T03:33:55.206Z,6.60
2022-10-18T03:36:22.902Z,7.60
2022-10-18T03:38:50.419Z,6.77
2022-10-18T03:41:17.808Z,7.47
2022-10-18T03:43:45.836Z,6.78
2022-10-18T03:46:13.607Z,7.05
2022-10-18T03:48:41.071Z,7.65
2022-10-18T03:51:08.785Z,7.10
2022-10-18T03:53:36.195Z,7.70
2022-10-18T03:56:03.683Z,8.38
2022-10-18T03:58:31.400Z,7.70
2022-10-18T04:00:58.824Z,8.07
2022-10-18T04:03:26.601Z,7.87
2022-10-18T04:05:54.026Z,7.60
2022-10-18T04:08:21.528Z,7.70
2022-10-18T04:10:49.244Z,6.45
2022-10-18T04:13:16.627Z,8.15
2022-10-18T04:15:44.084Z,6.67
2022-10-18T04:18:11.775Z,7.37
2022-10-18T04:20:39.165Z,7.10
2022-10-18T04:23:06.804Z,7.47
2022-10-18T04:25:34.511Z,7.62
2022-10-18T04:28:01.974Z,7.57
2022-10-18T04:30:29.346Z,7.05
2022-10-18T04:32:56.995Z,7.30
2022-10-18T04:35:26.040Z,8.07
2022-10-18T04:37:53.429Z,7.18
2022-10-18T04:40:21.557Z,7.43
2022-10-18T04:42:48.995Z,6.93
2022-10-18T04:45:16.379Z,7.80
2022-10-18T04:47:44.035Z,7.07
2022-10-18T04:50:11.417Z,7.20
2022-10-18T04:52:38.879Z,6.93
2022-10-18T04:55:06.998Z,7.47
2022-10-18T04:57:34.613Z,7.78
2022-10-18T05:00:02.412Z,7.55
2022-10-18T05:02:30.384Z,7.55
2022-10-18T05:04:58.099Z,7.63
2022-10-18T05:07:25.533Z,7.37
2022-10-18T05:09:53.191Z,7.45
2022-10-18T05:12:20.701Z,8.02
2022-10-18T05:14:48.469Z,8.27
2022-10-18T05:17:16.156Z,7.50
2022-10-18T05:19:43.552Z,7.68
2022-10-18T05:22:10.923Z,8.43
2022-10-18T05:24:38.767Z,7.62
2022-10-18T05:27:06.163Z,7.30
2022-10-18T05:29:33.551Z,7.57
2022-10-18T05:32:01.230Z,6.70
2022-10-18T05:34:31.936Z,7.95
2022-10-18T05:37:00.242Z,7.60
2022-10-18T05:39:28.005Z,8.88
2022-10-18T05:41:55.374Z,7.83
2022-10-18T05:44:22.779Z,8.13
2022-10-18T05:46:50.530Z,8.23
2022-10-18T05:49:18.054Z,7.70
2022-10-18T05:51:45.456Z,7.47
2022-10-18T05:54:13.412Z,7.13
2022-10-18T05:56:41.720Z,7.40
2022-10-18T05:59:12.389Z,7.78
2022-10-18T06:01:42.006Z,7.62
2022-10-18T06:04:10.411Z,8.00
2022-10-18T06:06:38.643Z,7.10
2022-10-18T06:09:08.008Z,8.40
2022-10-18T06:11:37.016Z,7.90
2022-10-18T06:14:05.034Z,8.45
2022-10-18T06:16:32.907Z,7.90
2022-10-18T06:19:00.751Z,8.13
2022-10-18T06:21:28.303Z,8.20
2022-10-18T06:23:58.647Z,8.57
2022-10-18T06:26:27.897Z,7.87
2022-10-18T06:28:55.409Z,7.65
2022-10-18T06:31:22.968Z,8.17
2022-10-18T06:33:50.879Z,8.15
2022-10-18T06:36:22.056Z,8.07
2022-10-18T06:38:50.360Z,7.57
2022-10-18T06:41:19.326Z,8.05
2022-10-18T06:43:56.809Z,8.17
2022-10-18T06:46:25.842Z,7.53
2022-10-18T06:48:53.236Z,7.68
2022-10-18T06:51:20.631Z,7.97
2022-10-18T06:54:05.898Z,8.25
2022-10-18T06:56:36.392Z,7.40
2022-10-18T06:59:04.869Z,7.82
2022-10-18T07:01:32.319Z,8.60
2022-10-18T07:03:59.884Z,8.50
2022-10-18T07:06:27.632Z,8.85
2022-10-18T07:08:55.053Z,8.43
2022-10-18T07:11:25.363Z,8.45
2022-10-18T07:14:02.329Z,8.15
2022-10-18T07:16:30.466Z,8.15
2022-10-18T07:18:58.362Z,8.77
2022-10-18T07:21:26.547Z,12.43
2022-10-18T07:23:54.403Z,37.28
2022-10-18T07:26:23.748Z,51.60
2022-10-18T07:28:58.054Z,42.85
2022-10-18T07:31:26.700Z,24.70
2022-10-18T07:33:54.382Z,11.97
2022-10-18T07:36:22.278Z,9.88
2022-10-18T07:38:52.021Z,9.13
2022-10-18T07:41:20.162Z,13.43
2022-10-18T07:43:51.002Z,12.52
2022-10-18T07:46:20.500Z,18.13
2022-10-18T07:48:47.918Z,15.25
2022-10-18T07:51:15.893Z,17.30
2022-10-18T07:53:43.830Z,16.37
2022-10-18T07:56:18.080Z,14.70
2022-10-18T07:58:53.811Z,15.23
2022-10-18T08:01:22.918Z,14.60
2022-10-18T08:03:51.506Z,13.05
2022-10-18T08:06:20.292Z,11.10
2022-10-18T08:08:48.339Z,9.82
2022-10-18T08:11:19.493Z,11.23
2022-10-18T08:13:47.043Z,9.43
2022-10-18T08:16:20.941Z,8.43
2022-10-18T08:18:49.227Z,11.40
2022-10-18T08:21:18.794Z,8.85
2022-10-18T08:23:46.664Z,6.90
2022-10-18T08:26:19.927Z,7.70
2022-10-18T08:28:53.909Z,6.28
2022-10-18T08:31:26.290Z,6.95
2022-10-18T08:33:57.090Z,7.15
2022-10-18T08:36:25.122Z,6.60
2022-10-18T08:38:52.843Z,6.62
2022-10-18T08:41:32.070Z,7.03
2022-10-18T08:44:04.772Z,6.95
2022-10-18T08:46:37.595Z,6.70
2022-10-18T08:49:10.970Z,7.33
2022-10-18T08:51:46.752Z,7.50
2022-10-18T08:54:18.194Z,7.30
2022-10-18T08:56:58.165Z,7.40
2022-10-18T08:59:25.957Z,7.22
2022-10-18T09:02:23.507Z,7.47
2022-10-18T09:05:01.307Z,8.02
2022-10-18T09:07:56.463Z,6.97
2022-10-18T09:10:45.066Z,7.72
2022-10-18T09:13:42.280Z,7.30
2022-10-18T09:16:27.927Z,8.10
2022-10-18T09:19:13.785Z,8.15
2022-10-18T09:22:25.065Z,7.03
2022-10-18T09:25:11.456Z,9.00
2022-10-18T09:27:52.677Z,6.45
2022-10-18T09:30:32.995Z,9.37
2022-10-18T09:33:09.680Z,10.45
2022-10-18T09:35:50.816Z,7.30
2022-10-18T09:38:23.330Z,6.35
2022-10-18T09:40:59.798Z,7.05
2022-10-18T09:43:51.794Z,7.27
2022-10-18T09:46:21.534Z,8.95
2022-10-18T09:48:58.066Z,7.45
2022-10-18T09:51:29.598Z,6.93
2022-10-18T09:54:29.391Z,8.02
2022-10-18T09:57:08.367Z,7.30
2022-10-18T09:59:45.185Z,6.53
2022-10-18T10:02:15.539Z,6.37
2022-10-18T10:04:43.399Z,9.82
2022-10-18T10:07:35.444Z,7.40
2022-10-18T10:10:08.730Z,7.00
2022-10-18T10:12:39.179Z,6.20
2022-10-18T10:15:22.781Z,6.30
2022-10-18T10:17:58.903Z,5.95
2022-10-18T10:20:42.476Z,6.00
2022-10-18T10:23:44.602Z,5.17
2022-10-18T10:26:27.295Z,5.78
2022-10-18T10:28:54.950Z,5.82
2022-10-18T10:31:25.361Z,6.00
2022-10-18T10:34:01.311Z,6.12
2022-10-18T10:36:30.369Z,5.73
2022-10-18T10:39:16.235Z,5.65
2022-10-18T10:41:47.137Z,5.55
2022-10-18T10:44:20.235Z,5.93
2022-10-18T10:46:50.403Z,6.25
2022-10-18T10:52:28.080Z,6.50
2022-10-18T10:57:50.868Z,6.72
2022-10-18T11:00:42.855Z,6.30
2022-10-18T11:03:30.004Z,6.60
2022-10-18T11:06:00.489Z,8.35
2022-10-18T11:08:35.949Z,7.68
2022-10-18T11:11:26.883Z,5.55
2022-10-18T11:17:17.159Z,4.93
2022-10-18T11:19:52.820Z,5.90
2022-10-18T11:22:24.268Z,5.87
2022-10-18T11:24:52.094Z,5.68
2022-10-18T11:27:29.602Z,6.50
2022-10-18T11:30:29.023Z,6.10
2022-10-18T11:33:14.967Z,6.32
2022-10-18T11:36:21.364Z,6.37
2022-10-18T11:39:02.681Z,5.68
2022-10-18T11:41:51.704Z,5.90
2022-10-18T11:44:28.423Z,5.50
2022-10-18T11:47:19.683Z,5.50
2022-10-18T11:50:39.967Z,5.75
2022-10-18T11:53:10.270Z,6.32
2022-10-18T11:56:25.376Z,5.57
2022-10-18T11:59:13.288Z,6.23
2022-10-18T12:02:08.642Z,5.78
2022-10-18T12:04:49.096Z,6.15
2022-10-18T12:07:38.081Z,5.35
2022-10-18T12:10:09.728Z,5.40
2022-10-18T12:12:52.081Z,6.53
2022-10-18T12:15:25.638Z,5.40
2022-10-18T12:18:00.752Z,5.40
2022-10-18T12:20:54.380Z,5.18
2022-10-18T12:23:44.420Z,6.30
2022-10-18T12:26:12.465Z,5.13
2022-10-18T12:28:51.775Z,5.30
2022-10-18T12:31:27.701Z,5.78
2022-10-18T12:33:58.802Z,5.30
2022-10-18T12:36:48.144Z,5.62
2022-10-18T12:40:09.177Z,5.70
2022-10-18T12:42:47.038Z,8.45
2022-10-18T12:45:25.848Z,8.20
2022-10-18T12:47:55.325Z,5.60
2022-10-18T12:50:36.979Z,5.70
2022-10-18T12:53:10.776Z,5.57
2022-10-18T12:55:49.741Z,5.87
2022-10-18T12:58:32.132Z,6.00
2022-10-18T13:01:05.518Z,6.85
2022-10-18T13:03:57.139Z,6.20
2022-10-18T13:06:24.983Z,5.23
2022-10-18T13:09:19.017Z,6.40
2022-10-18T13:11:46.546Z,6.28
2022-10-18T13:14:49.393Z,7.18
2022-10-18T13:17:59.016Z,5.37
2022-10-18T13:20:38.591Z,5.70
2022-10-18T13:23:36.957Z,6.30
2022-10-18T13:26:20.462Z,6.18
2022-10-18T13:28:56.382Z,6.18
2022-10-18T13:31:37.692Z,6.65
2022-10-18T13:34:18.692Z,6.07
2022-10-18T13:36:56.780Z,6.32
2022-10-18T13:39:25.257Z,5.70
2022-10-18T13:41:58.802Z,6.37
2022-10-18T13:44:48.181Z,6.15
2022-10-18T13:47:33.724Z,6.20
2022-10-18T13:50:18.314Z,6.05
2022-10-18T13:53:29.389Z,6.12
2022-10-18T13:56:22.801Z,5.93
2022-10-18T13:59:15.399Z,5.62
2022-10-18T14:01:54.540Z,5.40
2022-10-18T14:04:39.793Z,5.57
2022-10-18T14:07:09.198Z,5.68
2022-10-18T14:09:52.415Z,5.50
2022-10-18T14:12:28.734Z,6.75
2022-10-18T14:15:07.685Z,5.57
2022-10-18T14:18:00.237Z,5.40
2022-10-18T14:20:30.308Z,6.15
2022-10-18T14:23:09.488Z,5.53
2022-10-18T14:25:38.599Z,5.53
2022-10-18T14:28:14.999Z,5.20
2022-10-18T14:31:09.295Z,5.32
2022-10-18T14:33:44.918Z,4.95
2022-10-18T14:36:21.969Z,5.82
2022-10-18T14:39:00.682Z,5.43
2022-10-18T14:41:30.845Z,5.50
2022-10-18T14:44:16.329Z,5.32
2022-10-18T14:46:44.984Z,5.30
2022-10-18T14:49:14.116Z,4.93
2022-10-18T14:51:43.981Z,5.30
2022-10-18T14:54:16.407Z,4.73
2022-10-18T14:56:44.751Z,4.82
2022-10-18T14:59:31.109Z,5.43
2022-10-18T15:02:02.145Z,4.87
2022-10-18T15:04:33.229Z,4.95
2022-10-18T15:07:06.547Z,4.97
2022-10-18T15:09:36.570Z,4.97
2022-10-18T15:12:06.654Z,5.47
2022-10-18T15:14:35.707Z,5.10
2022-10-18T15:17:08.390Z,5.28
2022-10-18T15:19:39.571Z,5.43
2022-10-18T15:22:30.948Z,5.03
2022-10-18T15:25:14.654Z,5.75
2022-10-18T15:27:46.380Z,5.28
2022-10-18T15:30:25.541Z,5.28
2022-10-18T15:32:56.289Z,5.73
2022-10-18T15:35:30.936Z,5.37
2022-10-18T15:38:02.532Z,5.70
2022-10-18T15:40:36.504Z,4.70
2022-10-18T15:43:25.767Z,5.57
2022-10-18T15:46:00.137Z,5.47
2022-10-18T15:48:37.824Z,5.50
2022-10-18T15:51:08.671Z,4.95
2022-10-18T15:54:05.189Z,6.25
2022-10-18T15:56:40.119Z,5.07
2022-10-18T15:59:23.815Z,5.03
2022-10-18T16:01:51.874Z,4.80
2022-10-18T16:04:26.602Z,5.00
2022-10-18T16:06:55.685Z,4.70
2022-10-18T16:09:25.873Z,4.97
2022-10-18T16:11:57.263Z,4.50
2022-10-18T16:14:26.083Z,5.65
2022-10-18T16:16:56.628Z,5.43
2022-10-18T16:19:24.409Z,6.10
2022-10-18T16:21:53.974Z,6.25
2022-10-18T16:24:22.302Z,7.37
2022-10-18T16:26:50.479Z,6.90
2022-10-18T16:29:28.521Z,7.18
2022-10-18T16:31:58.331Z,6.12
2022-10-18T16:34:27.288Z,6.78
2022-10-18T16:36:55.320Z,6.30
2022-10-18T16:39:23.564Z,6.60
2022-10-18T16:41:51.780Z,6.00
2022-10-18T16:44:19.553Z,5.82
2022-10-18T16:46:51.057Z,5.97
2022-10-18T16:49:26.170Z,5.80
2022-10-18T16:51:54.367Z,7.00
2022-10-18T16:54:22.925Z,6.32
2022-10-18T16:56:50.575Z,6.37
2022-10-18T16:59:26.304Z,6.05
2022-10-18T17:01:54.421Z,5.80
2022-10-18T17:04:21.941Z,6.55
2022-10-18T17:06:49.606Z,6.72
2022-10-18T17:09:17.430Z,6.35
2022-10-18T17:11:44.842Z,6.90
2022-10-18T17:14:12.228Z,7.23
2022-10-18T17:16:39.973Z,7.00
2022-10-18T17:19:10.607Z,7.00
2022-10-18T17:21:38.083Z,7.28
2022-10-18T17:24:06.304Z,7.75
2022-10-18T17:26:34.418Z,8.37
2022-10-18T17:29:05.870Z,8.48
2022-10-18T17:31:35.580Z,7.40
2022-10-18T17:34:03.787Z,6.10
2022-10-18T17:36:32.499Z,6.87
2022-10-18T17:39:00.597Z,6.30
2022-10-18T17:41:28.070Z,6.45
2022-10-18T17:43:55.532Z,6.85
2022-10-18T17:46:23.794Z,6.85
2022-10-18T17:48:51.288Z,6.62
2022-10-18T17:51:18.784Z,6.53
2022-10-18T17:53:46.634Z,6.60
2022-10-18T17:56:15.011Z,6.75
2022-10-18T17:58:46.895Z,6.55
2022-10-18T18:01:23.003Z,6.25
2022-10-18T18:03:55.496Z,5.93
2022-10-18T18:06:31.386Z,6.55
2022-10-18T18:09:00.790Z,7.05
2022-10-18T18:11:28.925Z,7.35
2022-10-18T18:13:56.683Z,6.22
2022-10-18T18:16:27.132Z,5.97
2022-10-18T18:18:57.097Z,5.75
2022-10-18T18:21:26.820Z,6.22
2022-10-18T18:23:55.128Z,5.70
2022-10-18T18:26:23.003Z,5.85
2022-10-18T18:28:50.912Z,6.60
2022-10-18T18:31:23.573Z,5.45
2022-10-18T18:33:53.493Z,6.10
2022-10-18T18:36:22.389Z,5.43
2022-10-18T18:38:55.487Z,5.85
2022-10-18T18:41:27.730Z,6.13
2022-10-18T18:43:57.701Z,6.00
2022-10-18T18:46:27.804Z,5.95
2022-10-18T18:48:57.778Z,5.78
2022-10-18T18:51:28.939Z,6.03
2022-10-18T18:53:56.375Z,6.03
2022-10-18T18:56:26.196Z,6.10
2022-10-18T18:58:54.624Z,6.70
2022-10-18T19:01:25.327Z,6.60
2022-10-18T19:03:54.490Z,6.45
2022-10-18T19:06:28.834Z,5.87
2022-10-18T19:09:01.328Z,5.75
2022-10-18T19:11:33.618Z,5.93
2022-10-18T19:14:02.527Z,5.15
2022-10-18T19:16:31.596Z,5.12
2022-10-18T19:19:07.046Z,5.20
2022-10-18T19:21:37.599Z,5.40
2022-10-18T19:24:06.493Z,5.97
2022-10-18T19:26:50.036Z,5.87
2022-10-18T19:29:29.009Z,6.68
2022-10-18T19:31:59.456Z,6.07
2022-10-18T19:34:28.856Z,6.82
2022-10-18T19:36:57.110Z,6.53
2022-10-18T19:39:32.880Z,6.18
2022-10-18T19:42:03.483Z,5.75
2022-10-18T19:44:32.499Z,5.63
2022-10-18T19:47:00.409Z,5.70
2022-10-18T19:49:28.773Z,6.15
2022-10-18T19:51:57.017Z,5.50
2022-10-18T19:54:25.258Z,5.30
2022-10-18T19:56:52.705Z,5.43
2022-10-18T19:59:21.261Z,4.93
2022-10-18T20:01:49.157Z,5.72
2022-10-18T20:04:16.994Z,5.47
2022-10-18T20:06:44.875Z,5.43
2022-10-18T20:09:16.265Z,5.93
2022-10-18T20:11:52.229Z,6.00
2022-10-18T20:14:20.154Z,5.62
2022-10-18T20:16:47.920Z,5.30
2022-10-18T20:19:15.335Z,5.05
2022-10-18T20:21:42.752Z,5.20
2022-10-18T20:24:11.112Z,4.50
2022-10-18T20:26:39.640Z,4.18
2022-10-18T20:29:07.947Z,4.43
2022-10-18T20:31:38.496Z,4.75
2022-10-18T20:34:11.934Z,5.27
2022-10-18T20:36:40.377Z,5.95
2022-10-18T20:39:08.190Z,6.68
2022-10-18T20:41:38.624Z,6.12
2022-10-18T20:44:10.638Z,7.00
2022-10-18T20:46:39.171Z,6.10
2022-10-18T20:49:08.484Z,5.70
2022-10-18T20:51:35.915Z,5.62
2022-10-18T20:56:38.828Z,5.45
2022-10-18T20:59:09.472Z,4.50
2022-10-18T21:01:39.029Z,4.90
2022-10-18T21:04:10.079Z,5.85
2022-10-18T21:06:40.999Z,5.85
2022-10-18T21:09:10.179Z,6.30
2022-10-18T21:11:39.959Z,5.67
2022-10-18T21:14:10.655Z,5.15
2022-10-18T21:16:38.392Z,5.03
2022-10-18T21:19:21.210Z,5.12
2022-10-18T21:21:51.555Z,5.10
2022-10-18T21:24:20.669Z,5.77
2022-10-18T21:26:48.814Z,5.87
2022-10-18T21:29:21.554Z,5.93
2022-10-18T21:31:52.378Z,5.00
2022-10-18T21:34:20.598Z,5.65
2022-10-18T21:36:48.682Z,5.50
2022-10-18T21:39:25.507Z,5.10
2022-10-18T21:41:53.268Z,5.18
2022-10-18T21:44:20.720Z,4.68
2022-10-18T21:46:48.206Z,5.15
2022-10-18T21:49:16.537Z,4.37
2022-10-18T21:51:44.634Z,4.30
2022-10-18T21:54:14.562Z,4.28
2022-10-18T21:56:42.498Z,4.72
2022-10-18T21:59:12.140Z,4.95
2022-10-18T22:01:40.278Z,4.10
2022-10-18T22:04:18.919Z,4.72
2022-10-18T22:06:46.403Z,4.90
2022-10-18T22:09:14.340Z,4.65
2022-10-18T22:11:47.743Z,5.00
2022-10-18T22:14:15.520Z,4.10
2022-10-18T22:16:43.147Z,4.62
2022-10-18T22:19:10.596Z,4.30
2022-10-18T22:21:38.271Z,4.60
2022-10-18T22:24:08.137Z,4.55
2022-10-18T22:26:38.926Z,4.13
2022-10-18T22:29:10.304Z,5.00
2022-10-18T22:31:40.377Z,5.47
2022-10-18T22:34:11.592Z,5.00
2022-10-18T22:36:39.235Z,5.25
2022-10-18T22:39:07.395Z,5.23
2022-10-18T22:41:36.072Z,4.72
2022-10-18T22:44:04.095Z,5.57
2022-10-18T22:46:33.050Z,5.15
2022-10-18T22:49:00.828Z,5.20
2022-10-18T22:51:28.229Z,5.13
2022-10-18T22:53:56.016Z,4.28
2022-10-18T22:56:23.937Z,5.43
2022-10-18T22:58:51.499Z,5.87
2022-10-18T23:01:21.520Z,6.55
2022-10-18T23:03:56.674Z,6.60
2022-10-18T23:06:32.940Z,6.90
2022-10-18T23:09:05.054Z,5.95
2022-10-18T23:11:33.697Z,5.20
2022-10-18T23:14:03.786Z,6.12
2022-10-18T23:16:31.731Z,5.47
2022-10-18T23:18:59.863Z,4.95
2022-10-18T23:21:28.831Z,5.57
2022-10-18T23:23:57.141Z,6.07
2022-10-18T23:26:26.744Z,5.72
2022-10-18T23:28:54.967Z,5.40
2022-10-18T23:31:25.947Z,5.65
2022-10-18T23:33:56.358Z,6.03
2022-10-18T23:36:24.557Z,5.82
2022-10-18T23:38:52.643Z,5.80
2022-10-18T23:41:20.400Z,6.33
2022-10-18T23:43:47.941Z,5.78
2022-10-18T23:46:16.782Z,5.62
2022-10-18T23:48:44.595Z,5.32
2022-10-18T23:51:12.227Z,6.50
2022-10-18T23:53:40.120Z,6.20
2022-10-18T23:56:13.443Z,5.82
2022-10-18T23:58:41.276Z,5.85
